createdAt,value
2022-08-22T00:00:17.936Z,25.39
2022-08-22T00:02:43.290Z,23.55
2022-08-22T00:02:49.265Z,25.07
2022-08-22T00:05:56.388Z,24.97
2022-08-22T00:11:18.634Z,23.41
2022-08-22T00:16:34.055Z,22.48
2022-08-22T00:21:49.986Z,23.12
2022-08-22T00:27:17.954Z,25.31
2022-08-22T00:32:35.551Z,24.50
2022-08-22T00:37:46.291Z,23.01
2022-08-22T00:43:08.537Z,23.35
2022-08-22T00:48:33.603Z,25.50
2022-08-22T00:54:06.801Z,24.82
2022-08-22T00:59:45.989Z,23.15
2022-08-22T01:05:00.134Z,23.59
2022-08-22T01:10:24.043Z,25.58
2022-08-22T01:15:30.617Z,24.57
2022-08-22T01:21:11.110Z,23.17
2022-08-22T01:26:22.511Z,23.69
2022-08-22T01:32:05.649Z,25.72
2022-08-22T01:37:33.201Z,24.97
2022-08-22T01:43:00.908Z,23.48
2022-08-22T01:48:14.425Z,23.87
2022-08-22T01:53:36.721Z,25.87
2022-08-22T01:58:59.835Z,24.86
2022-08-22T02:04:10.711Z,23.44
2022-08-22T02:09:40.622Z,23.74
2022-08-22T02:15:05.914Z,25.87
2022-08-22T02:20:24.511Z,24.94
2022-08-22T02:25:33.340Z,23.55
2022-08-22T02:30:55.133Z,23.81
2022-08-22T02:36:04.798Z,25.86
2022-08-22T02:41:19.086Z,25.04
2022-08-22T02:46:30.419Z,23.67
2022-08-22T02:51:46.526Z,23.96
2022-08-22T02:56:57.786Z,25.89
2022-08-22T03:02:28.144Z,24.76
2022-08-22T03:07:39.684Z,23.48
2022-08-22T03:12:45.270Z,23.88
2022-08-22T03:18:00.818Z,25.99
2022-08-22T03:23:17.426Z,25.38
2022-08-22T03:28:27.047Z,23.89
2022-08-22T03:33:31.843Z,24.07
2022-08-22T03:38:34.624Z,26.07
2022-08-22T03:44:08.833Z,25.25
2022-08-22T03:49:32.950Z,23.83
2022-08-22T03:55:26.708Z,24.24
2022-08-22T04:00:37.602Z,26.13
2022-08-22T04:05:59.170Z,24.79
2022-08-22T04:11:21.640Z,23.60
2022-08-22T04:16:51.933Z,24.10
2022-08-22T04:21:54.926Z,26.29
2022-08-22T04:27:16.008Z,25.66
2022-08-22T04:32:36.826Z,24.18
2022-08-22T04:37:51.864Z,23.31
2022-08-22T04:43:06.259Z,23.92
2022-08-22T04:48:33.787Z,26.16
2022-08-22T04:53:48.795Z,25.50
2022-08-22T04:59:02.978Z,24.11
2022-08-22T05:04:10.719Z,24.42
2022-08-22T05:09:22.431Z,26.47
2022-08-22T05:14:34.211Z,25.74
2022-08-22T05:19:43.091Z,24.34
2022-08-22T05:24:49.865Z,23.51
2022-08-22T05:30:01.048Z,24.08
2022-08-22T05:35:08.771Z,26.36
2022-08-22T05:40:20.511Z,26.19
2022-08-22T05:45:26.534Z,24.63
2022-08-22T05:50:35.971Z,23.75
2022-08-22T05:55:39.041Z,24.27
2022-08-22T06:00:45.286Z,26.46
2022-08-22T06:05:53.487Z,26.42
2022-08-22T06:11:03.405Z,24.96
2022-08-22T06:16:12.349Z,24.08
2022-08-22T06:21:33.692Z,24.59
2022-08-22T06:26:48.890Z,26.83
2022-08-22T06:31:52.304Z,26.56
2022-08-22T06:36:57.634Z,25.12
2022-08-22T06:42:10.370Z,24.29
2022-08-22T06:47:26.422Z,23.68
2022-08-22T06:52:33.256Z,24.41
2022-08-22T06:57:43.909Z,26.71
2022-08-22T07:02:54.839Z,27.01
2022-08-22T07:07:58.084Z,25.50
2022-08-22T07:13:01.698Z,24.61
2022-08-22T07:18:27.675Z,25.07
2022-08-22T07:23:46.016Z,27.26
2022-08-22T07:28:58.523Z,26.63
2022-08-22T07:34:38.190Z,25.28
2022-08-22T07:39:58.139Z,25.77
2022-08-22T07:45:20.812Z,26.99
2022-08-22T07:50:29.193Z,25.52
2022-08-22T07:55:32.501Z,24.61
2022-08-22T08:00:43.453Z,25.07
2022-08-22T08:05:46.650Z,27.24
2022-08-22T08:10:52.721Z,27.06
2022-08-22T08:15:56.186Z,25.64
2022-08-22T08:21:04.939Z,24.82
2022-08-22T08:26:16.111Z,25.37
2022-08-22T08:31:38.171Z,27.58
2022-08-22T08:37:04.775Z,27.40
2022-08-22T08:42:22.393Z,25.99
2022-08-22T08:48:14.671Z,25.19
2022-08-22T08:53:27.181Z,26.11
2022-08-22T08:58:35.566Z,28.11
2022-08-22T09:04:02.773Z,27.41
2022-08-22T09:09:25.875Z,26.06
2022-08-22T09:14:50.571Z,25.35
2022-08-22T09:19:56.318Z,26.03
2022-08-22T09:25:19.227Z,28.12
2022-08-22T09:30:55.438Z,27.68
2022-08-22T09:36:07.337Z,26.26
2022-08-22T09:41:33.932Z,25.37
2022-08-22T09:46:56.976Z,25.95
2022-08-22T09:52:15.111Z,27.96
2022-08-22T09:57:41.113Z,27.04
2022-08-22T10:02:49.654Z,25.76
2022-08-22T10:08:05.535Z,26.00
2022-08-22T10:13:40.654Z,27.99
2022-08-22T10:19:05.293Z,27.49
2022-08-22T10:24:43.838Z,25.98
2022-08-22T10:30:08.285Z,25.09
2022-08-22T10:35:33.700Z,25.79
2022-08-22T10:40:39.590Z,27.94
2022-08-22T10:45:51.774Z,27.93
2022-08-22T10:51:08.870Z,26.40
2022-08-22T10:56:21.673Z,25.41
2022-08-22T11:01:37.221Z,25.94
2022-08-22T11:06:47.981Z,28.06
2022-08-22T11:12:34.885Z,28.22
2022-08-22T11:18:02.942Z,26.59
2022-08-22T11:23:32.482Z,26.95
2022-08-22T11:28:41.223Z,28.99
2022-08-22T11:34:03.897Z,28.55
2022-08-22T11:39:43.267Z,27.19
2022-08-22T11:44:54.682Z,28.56
2022-08-22T11:50:42.463Z,29.66
2022-08-22T11:56:05.984Z,28.55
2022-08-22T12:01:17.331Z,27.89
2022-08-22T12:06:46.715Z,28.61
2022-08-22T12:12:01.900Z,29.78
2022-08-22T12:17:55.860Z,28.79
2022-08-22T12:23:40.742Z,28.28
2022-08-22T12:28:56.705Z,27.86
2022-08-22T12:34:31.575Z,28.46
2022-08-22T12:39:46.963Z,29.79
2022-08-22T12:45:21.782Z,28.72
2022-08-22T12:50:35.481Z,27.89
2022-08-22T12:55:55.156Z,27.40
2022-08-22T13:01:06.442Z,27.09
2022-08-22T13:06:37.974Z,27.87
2022-08-22T13:11:43.506Z,29.44
2022-08-22T13:16:52.132Z,28.53
2022-08-22T13:22:11.725Z,28.02
2022-08-22T13:27:20.472Z,27.77
2022-08-22T13:32:39.271Z,28.71
2022-08-22T13:37:50.252Z,30.31
2022-08-22T13:43:02.685Z,29.35
2022-08-22T13:48:12.060Z,28.76
2022-08-22T13:53:29.923Z,28.41
2022-08-22T13:58:45.442Z,27.99
2022-08-22T14:03:59.443Z,27.62
2022-08-22T14:09:29.432Z,27.38
2022-08-22T14:14:38.814Z,27.21
2022-08-22T14:19:58.774Z,27.12
2022-08-22T14:25:24.009Z,27.07
2022-08-22T14:30:54.354Z,28.26
2022-08-22T14:36:13.328Z,29.78
2022-08-22T14:41:52.621Z,28.77
2022-08-22T14:47:00.224Z,28.08
2022-08-22T14:52:10.305Z,27.62
2022-08-22T14:57:22.685Z,27.23
2022-08-22T15:02:29.862Z,26.90
2022-08-22T15:07:36.513Z,26.63
2022-08-22T15:12:48.734Z,26.41
2022-08-22T15:17:52.825Z,27.28
2022-08-22T15:23:03.669Z,28.89
2022-08-22T15:28:14.486Z,27.88
2022-08-22T15:33:29.379Z,27.25
2022-08-22T15:38:38.986Z,26.88
2022-08-22T15:43:49.352Z,26.58
2022-08-22T15:49:19.688Z,26.34
2022-08-22T15:54:46.953Z,26.11
2022-08-22T15:59:57.795Z,27.24
2022-08-22T16:05:09.657Z,28.82
2022-08-22T16:10:21.280Z,27.76
2022-08-22T16:15:56.318Z,27.06
2022-08-22T16:21:04.630Z,27.85
2022-08-22T16:26:09.590Z,29.19
2022-08-22T16:31:18.055Z,28.01
2022-08-22T16:36:21.193Z,27.15
2022-08-22T16:41:34.771Z,26.63
2022-08-22T16:46:41.740Z,27.32
2022-08-22T16:52:26.250Z,28.75
2022-08-22T16:58:04.991Z,27.33
2022-08-22T17:03:27.523Z,26.30
2022-08-22T17:08:45.419Z,26.99
2022-08-22T17:14:09.715Z,28.90
2022-08-22T17:19:32.334Z,27.72
2022-08-22T17:24:46.752Z,26.58
2022-08-22T17:30:16.241Z,26.95
2022-08-22T17:35:44.324Z,28.21
2022-08-22T17:41:18.461Z,26.84
2022-08-22T17:46:36.418Z,25.98
2022-08-22T17:52:07.487Z,27.70
2022-08-22T17:57:38.118Z,28.29
2022-08-22T18:02:43.515Z,26.82
2022-08-22T18:07:55.213Z,26.05
2022-08-22T18:13:21.565Z,26.65
2022-08-22T18:18:35.182Z,28.72
2022-08-22T18:23:54.874Z,27.81
2022-08-22T18:29:01.030Z,26.50
2022-08-22T18:34:16.247Z,25.72
2022-08-22T18:39:22.115Z,26.34
2022-08-22T18:44:27.683Z,28.34
2022-08-22T18:49:30.800Z,28.10
2022-08-22T18:54:49.025Z,26.69
2022-08-22T19:00:00.929Z,25.80
2022-08-22T19:05:13.265Z,26.33
2022-08-22T19:10:34.535Z,28.42
2022-08-22T19:15:56.100Z,28.03
2022-08-22T19:21:45.015Z,26.55
2022-08-22T19:27:10.095Z,25.58
2022-08-22T19:32:44.770Z,26.21
2022-08-22T19:38:00.711Z,28.30
2022-08-22T19:43:18.665Z,27.67
2022-08-22T19:48:31.658Z,26.07
2022-08-22T19:53:42.300Z,26.19
2022-08-22T19:58:54.923Z,28.10
2022-08-22T20:04:10.038Z,27.64
2022-08-22T20:09:32.859Z,26.03
2022-08-22T20:14:40.212Z,26.20
2022-08-22T20:25:41.481Z,26.12
2022-08-22T20:30:47.033Z,24.69
2022-08-22T20:35:59.234Z,25.03
2022-08-22T20:41:17.412Z,27.07
2022-08-22T20:46:53.497Z,27.24
2022-08-22T20:52:04.952Z,25.47
2022-08-22T20:57:19.397Z,24.48
2022-08-22T21:02:29.763Z,24.93
2022-08-22T21:07:42.537Z,27.04
2022-08-22T21:13:11.322Z,27.26
2022-08-22T21:18:36.844Z,25.66
2022-08-22T21:23:59.911Z,24.70
2022-08-22T21:29:05.985Z,25.28
2022-08-22T21:34:18.592Z,27.32
2022-08-22T21:39:25.728Z,27.44
2022-08-22T21:44:31.140Z,25.86
2022-08-22T21:49:34.202Z,24.86
2022-08-22T21:54:40.788Z,25.22
2022-08-22T21:59:51.968Z,27.19
2022-08-22T22:05:11.720Z,27.24
2022-08-22T22:10:19.418Z,25.72
2022-08-22T22:15:25.981Z,24.77
2022-08-22T22:20:28.973Z,25.14
2022-08-22T22:25:38.797Z,26.89
2022-08-22T22:30:45.626Z,25.76
2022-08-22T22:35:49.681Z,24.57
2022-08-22T22:40:53.392Z,24.89
2022-08-22T22:45:56.575Z,26.89
2022-08-22T22:50:59.614Z,27.14
2022-08-22T22:56:02.890Z,25.63
2022-08-22T23:01:18.654Z,24.64
2022-08-22T23:06:23.554Z,25.08
2022-08-22T23:11:29.888Z,27.05
2022-08-22T23:16:37.155Z,27.05
2022-08-22T23:21:41.655Z,25.51
2022-08-22T23:26:44.961Z,24.55
2022-08-22T23:31:55.899Z,24.93
2022-08-22T23:37:00.790Z,27.02
2022-08-22T23:42:07.382Z,27.18
2022-08-22T23:47:10.967Z,25.62
2022-08-22T23:52:14.195Z,24.59
2022-08-22T23:57:17.744Z,24.94
